createdAt,value
2018-09-05T00:01:55.711Z,14.00
2018-09-05T00:04:25.931Z,14.00
2018-09-05T00:06:56.408Z,14.00
2018-09-05T00:09:26.583Z,14.10
2018-09-05T00:11:57.347Z,14.10
2018-09-05T00:14:27.894Z,14.10
2018-09-05T00:16:58.005Z,14.10
2018-09-05T00:19:28.164Z,14.00
2018-09-05T00:21:58.553Z,14.00
2018-09-05T00:24:28.774Z,14.00
2018-09-05T00:26:59.284Z,13.90
2018-09-05T00:29:29.363Z,13.90
2018-09-05T00:31:59.645Z,13.90
2018-09-05T00:34:30.424Z,13.90
2018-09-05T00:37:00.712Z,13.90
2018-09-05T00:39:30.824Z,13.90
2018-09-05T00:42:01.162Z,13.90
2018-09-05T00:44:31.402Z,13.90
2018-09-05T00:47:01.484Z,13.80
2018-09-05T00:49:31.956Z,13.80
2018-09-05T00:52:02.672Z,13.70
2018-09-05T00:54:33.026Z,13.70
2018-09-05T00:57:03.847Z,13.60
2018-09-05T00:59:34.132Z,13.60
2018-09-05T01:02:04.291Z,13.50
2018-09-05T01:04:34.646Z,13.50
2018-09-05T01:07:23.444Z,13.50
2018-09-05T01:09:53.571Z,13.50
2018-09-05T01:12:24.445Z,13.40
2018-09-05T01:14:55.740Z,13.40
2018-09-05T01:17:26.015Z,13.40
2018-09-05T01:19:56.150Z,13.40
2018-09-05T01:22:26.906Z,13.40
2018-09-05T01:24:57.284Z,13.30
2018-09-05T01:27:27.569Z,13.40
2018-09-05T01:29:58.043Z,13.40
2018-09-05T01:32:28.041Z,13.40
2018-09-05T01:34:58.443Z,13.50
2018-09-05T01:37:28.531Z,13.50
2018-09-05T01:39:59.199Z,13.50
2018-09-05T01:42:29.256Z,13.40
2018-09-05T01:44:59.746Z,13.50
2018-09-05T01:47:30.099Z,13.50
2018-09-05T01:50:00.412Z,13.40
2018-09-05T01:52:30.484Z,13.40
2018-09-05T01:55:00.514Z,13.30
2018-09-05T01:57:30.792Z,13.30
2018-09-05T02:00:00.910Z,13.30
2018-09-05T02:02:30.970Z,13.30
2018-09-05T02:05:00.999Z,13.30
2018-09-05T02:07:31.109Z,13.30
2018-09-05T02:10:01.500Z,13.30
2018-09-05T02:12:31.649Z,13.30
2018-09-05T02:15:01.897Z,13.30
2018-09-05T02:17:32.503Z,13.30
2018-09-05T02:20:02.588Z,13.40
2018-09-05T02:22:33.208Z,13.30
2018-09-05T02:25:03.390Z,13.30
2018-09-05T02:27:33.460Z,13.20
2018-09-05T02:30:04.385Z,13.20
2018-09-05T02:32:34.768Z,13.20
2018-09-05T02:35:05.241Z,13.20
2018-09-05T02:37:35.500Z,13.20
2018-09-05T02:40:06.164Z,13.10
2018-09-05T02:42:36.432Z,13.10
2018-09-05T02:45:06.997Z,13.20
2018-09-05T02:47:37.152Z,13.10
2018-09-05T02:50:07.684Z,13.20
2018-09-05T02:52:37.957Z,13.20
2018-09-05T02:55:08.041Z,13.30
2018-09-05T02:57:38.387Z,13.30
2018-09-05T03:00:09.751Z,13.30
2018-09-05T03:02:40.190Z,13.30
2018-09-05T03:05:10.287Z,13.40
2018-09-05T03:07:40.431Z,13.40
2018-09-05T03:10:10.617Z,13.50
2018-09-05T03:12:40.774Z,13.50
2018-09-05T03:15:11.924Z,13.60
2018-09-05T03:17:42.078Z,13.70
2018-09-05T03:20:13.106Z,13.70
2018-09-05T03:22:43.255Z,13.70
2018-09-05T03:25:13.630Z,13.70
2018-09-05T03:27:44.321Z,13.60
2018-09-05T03:30:15.748Z,13.60
2018-09-05T03:32:46.133Z,13.60
2018-09-05T03:35:16.395Z,13.70
2018-09-05T03:37:46.639Z,13.70
2018-09-05T03:40:16.689Z,13.70
2018-09-05T03:42:47.026Z,13.80
2018-09-05T03:45:17.083Z,13.80
2018-09-05T03:47:47.663Z,13.90
2018-09-05T03:50:17.757Z,13.90
2018-09-05T03:52:47.952Z,13.80
2018-09-05T03:55:18.153Z,13.80
2018-09-05T03:57:48.343Z,13.70
2018-09-05T04:00:18.562Z,13.70
2018-09-05T04:02:48.839Z,13.70
2018-09-05T04:05:19.099Z,13.70
2018-09-05T04:07:49.227Z,13.70
2018-09-05T04:10:19.476Z,13.60
2018-09-05T04:12:49.676Z,13.60
2018-09-05T04:15:20.102Z,13.50
2018-09-05T04:17:50.319Z,13.50
2018-09-05T04:20:20.829Z,13.50
2018-09-05T04:22:51.061Z,13.60
2018-09-05T04:25:21.191Z,13.50
2018-09-05T04:27:51.863Z,13.50
2018-09-05T04:30:22.092Z,13.50
2018-09-05T04:32:52.471Z,13.50
2018-09-05T04:35:22.605Z,13.50
2018-09-05T04:37:52.827Z,13.40
2018-09-05T04:40:23.043Z,13.40
2018-09-05T04:42:53.056Z,13.40
2018-09-05T04:45:23.586Z,13.50
2018-09-05T04:47:53.648Z,13.60
2018-09-05T04:50:23.866Z,13.60
2018-09-05T04:52:54.733Z,13.60
2018-09-05T04:55:25.181Z,13.50
2018-09-05T04:57:55.328Z,13.50
2018-09-05T05:00:25.418Z,13.40
2018-09-05T05:02:55.524Z,13.30
2018-09-05T05:05:25.944Z,13.30
2018-09-05T05:07:56.667Z,13.20
2018-09-05T05:10:26.815Z,13.20
2018-09-05T05:12:56.994Z,13.30
2018-09-05T05:15:27.570Z,13.30
2018-09-05T05:17:57.842Z,13.30
2018-09-05T05:20:28.080Z,13.30
2018-09-05T05:22:58.393Z,13.40
2018-09-05T05:25:28.572Z,13.50
2018-09-05T05:27:58.730Z,13.60
2018-09-05T05:30:29.124Z,13.70
2018-09-05T05:32:59.445Z,13.80
2018-09-05T05:35:29.960Z,13.90
2018-09-05T05:38:00.164Z,14.10
2018-09-05T05:40:30.593Z,14.20
2018-09-05T05:43:00.784Z,14.40
2018-09-05T05:45:31.318Z,14.40
2018-09-05T05:48:02.239Z,14.50
2018-09-05T05:50:32.568Z,14.60
2018-09-05T05:53:02.959Z,14.80
2018-09-05T05:55:33.268Z,14.90
2018-09-05T05:58:03.649Z,15.00
2018-09-05T06:00:33.904Z,15.10
2018-09-05T06:03:04.052Z,15.20
2018-09-05T06:05:35.246Z,15.40
2018-09-05T06:08:05.757Z,15.60
2018-09-05T06:10:36.490Z,15.70
2018-09-05T06:13:07.139Z,15.90
2018-09-05T06:15:38.253Z,16.00
2018-09-05T06:18:09.997Z,16.20
2018-09-05T06:20:40.822Z,16.40
2018-09-05T06:23:11.598Z,16.60
2018-09-05T06:25:42.437Z,16.80
2018-09-05T06:28:13.545Z,16.90
2018-09-05T06:30:45.407Z,17.10
2018-09-05T06:33:16.207Z,17.30
2018-09-05T06:35:47.489Z,17.50
2018-09-05T06:38:18.390Z,17.70
2018-09-05T06:40:49.511Z,17.90
2018-09-05T06:43:20.400Z,18.00
2018-09-05T06:45:51.193Z,18.20
2018-09-05T06:48:21.983Z,18.30
2018-09-05T06:50:56.654Z,18.50
2018-09-05T06:53:27.503Z,18.70
2018-09-05T06:55:58.137Z,18.80
2018-09-05T06:58:28.905Z,19.00
2018-09-05T07:00:59.567Z,19.10
2018-09-05T07:03:30.425Z,19.30
2018-09-05T07:06:01.297Z,19.50
2018-09-05T07:08:32.507Z,19.70
2018-09-05T07:11:03.323Z,19.90
2018-09-05T07:13:34.183Z,20.00
2018-09-05T07:16:06.038Z,20.10
2018-09-05T07:18:36.999Z,20.30
2018-09-05T07:21:07.953Z,20.30
2018-09-05T07:23:38.998Z,20.50
2018-09-05T07:26:09.633Z,20.60
2018-09-05T07:28:40.246Z,20.70
2018-09-05T07:31:10.869Z,20.80
2018-09-05T07:33:41.808Z,20.70
2018-09-05T07:36:12.723Z,20.60
2018-09-05T07:38:43.613Z,20.70
2018-09-05T07:41:14.462Z,20.80
2018-09-05T07:43:45.397Z,21.00
2018-09-05T07:46:16.530Z,21.20
2018-09-05T07:48:47.741Z,21.10
2018-09-05T07:51:18.600Z,20.90
2018-09-05T07:53:49.269Z,21.00
2018-09-05T07:56:20.091Z,20.90
2018-09-05T07:58:50.910Z,20.90
2018-09-05T08:01:21.611Z,21.10
2018-09-05T08:03:52.669Z,21.10
2018-09-05T08:06:23.520Z,21.10
2018-09-05T08:08:54.796Z,21.10
2018-09-05T08:11:25.755Z,21.30
2018-09-05T08:13:56.523Z,21.50
2018-09-05T08:16:27.410Z,21.60
2018-09-05T08:18:58.456Z,21.90
2018-09-05T08:21:29.413Z,22.00
2018-09-05T08:24:00.140Z,22.10
2018-09-05T08:26:31.103Z,22.00
2018-09-05T08:29:03.656Z,22.10
2018-09-05T08:31:34.492Z,22.10
2018-09-05T08:34:05.650Z,22.10
2018-09-05T08:36:37.378Z,22.30
2018-09-05T08:39:12.635Z,22.20
2018-09-05T08:41:43.438Z,22.40
2018-09-05T08:44:14.803Z,22.60
2018-09-05T08:46:45.823Z,22.60
2018-09-05T08:49:16.735Z,22.20
2018-09-05T08:51:47.778Z,22.20
2018-09-05T08:54:18.437Z,22.20
2018-09-05T08:56:49.135Z,22.50
2018-09-05T08:59:19.753Z,22.70
2018-09-05T09:01:50.450Z,22.60
2018-09-05T09:04:21.065Z,22.60
2018-09-05T09:06:51.575Z,22.70
2018-09-05T09:09:22.669Z,23.00
2018-09-05T09:11:53.259Z,23.10
2018-09-05T09:14:24.110Z,23.30
2018-09-05T09:16:55.000Z,23.40
2018-09-05T09:19:25.896Z,23.40
2018-09-05T09:21:56.545Z,23.40
2018-09-05T09:24:27.172Z,23.30
2018-09-05T09:26:57.805Z,23.30
2018-09-05T09:29:28.599Z,23.30
2018-09-05T09:31:59.395Z,23.30
2018-09-05T09:34:30.211Z,23.20
2018-09-05T09:37:00.919Z,23.30
2018-09-05T09:39:31.654Z,23.50
2018-09-05T09:42:02.243Z,23.60
2018-09-05T09:44:32.826Z,23.70
2018-09-05T09:47:03.937Z,23.60
2018-09-05T09:49:34.910Z,23.80
2018-09-05T09:52:11.053Z,23.80
2018-09-05T09:54:41.847Z,24.00
2018-09-05T09:57:12.730Z,24.30
2018-09-05T09:59:43.313Z,24.60
2018-09-05T10:02:19.224Z,25.10
2018-09-05T10:04:55.254Z,25.20
2018-09-05T10:07:31.019Z,25.30
2018-09-05T10:10:07.031Z,25.40
2018-09-05T10:12:46.839Z,25.50
2018-09-05T10:15:22.702Z,25.30
2018-09-05T10:17:58.475Z,24.60
2018-09-05T10:20:29.129Z,23.90
2018-09-05T10:22:59.822Z,23.20
2018-09-05T10:25:30.631Z,22.70
2018-09-05T10:28:01.480Z,22.30
2018-09-05T10:30:32.099Z,22.20
2018-09-05T10:33:02.609Z,22.10
2018-09-05T10:35:33.772Z,22.10
2018-09-05T10:38:04.883Z,22.20
2018-09-05T10:40:36.135Z,22.30
2018-09-05T10:43:08.146Z,22.30
2018-09-05T10:45:39.382Z,22.50
2018-09-05T10:48:11.090Z,22.70
2018-09-05T10:50:43.681Z,23.00
2018-09-05T10:53:15.090Z,23.20
2018-09-05T10:55:45.866Z,23.30
2018-09-05T10:58:16.893Z,23.10
2018-09-05T11:00:47.964Z,23.30
2018-09-05T11:03:18.725Z,23.20
2018-09-05T11:05:49.492Z,23.10
2018-09-05T11:08:20.463Z,23.30
2018-09-05T11:10:51.420Z,23.50
2018-09-05T11:13:22.208Z,23.40
2018-09-05T11:15:52.984Z,23.20
2018-09-05T11:18:24.201Z,23.50
2018-09-05T11:20:55.472Z,23.60
2018-09-05T11:23:26.315Z,23.70
2018-09-05T11:25:57.241Z,23.40
2018-09-05T11:28:28.162Z,23.60
2018-09-05T11:30:58.884Z,23.60
2018-09-05T11:33:29.562Z,23.40
2018-09-05T11:36:00.498Z,23.60
2018-09-05T11:38:31.684Z,24.00
2018-09-05T11:41:02.632Z,24.40
2018-09-05T11:43:33.299Z,24.80
2018-09-05T11:46:04.064Z,25.50
2018-09-05T11:48:34.634Z,25.80
2018-09-05T11:51:06.097Z,26.10
2018-09-05T11:53:37.021Z,26.10
2018-09-05T11:56:07.955Z,25.90
2018-09-05T11:58:38.813Z,25.30
2018-09-05T12:01:09.622Z,24.60
2018-09-05T12:03:40.455Z,24.40
2018-09-05T12:06:11.199Z,24.80
2018-09-05T12:08:41.965Z,25.00
2018-09-05T12:11:13.126Z,25.20
2018-09-05T12:13:43.845Z,25.20
2018-09-05T12:16:14.695Z,25.20
2018-09-05T12:18:45.658Z,25.40
2018-09-05T12:21:16.660Z,25.20
2018-09-05T12:23:47.326Z,24.90
2018-09-05T12:26:18.072Z,25.00
2018-09-05T12:28:48.859Z,24.70
2018-09-05T12:31:19.893Z,24.20
2018-09-05T12:33:50.742Z,23.70
2018-09-05T12:36:21.628Z,23.40
2018-09-05T12:38:52.739Z,23.20
2018-09-05T12:41:23.689Z,22.90
2018-09-05T12:43:54.575Z,23.10
2018-09-05T12:46:25.246Z,23.50
2018-09-05T12:48:56.314Z,24.00
2018-09-05T12:51:28.823Z,24.10
2018-09-05T12:54:00.377Z,23.90
2018-09-05T12:56:31.370Z,23.70
2018-09-05T12:59:02.362Z,23.40
2018-09-05T13:01:33.177Z,23.40
2018-09-05T13:04:04.052Z,23.60
2018-09-05T13:06:34.920Z,23.90
2018-09-05T13:09:09.862Z,24.40
2018-09-05T13:11:40.701Z,24.80
2018-09-05T13:14:11.764Z,25.10
2018-09-05T13:16:43.098Z,25.30
2018-09-05T13:19:13.769Z,25.50
2018-09-05T13:21:44.877Z,25.20
2018-09-05T13:24:15.477Z,24.90
2018-09-05T13:26:46.640Z,24.80
2018-09-05T13:29:18.229Z,24.80
2018-09-05T13:31:48.758Z,24.10
2018-09-05T13:34:19.432Z,23.60
2018-09-05T13:36:50.011Z,23.60
2018-09-05T13:39:21.095Z,23.70
2018-09-05T13:41:51.934Z,23.60
2018-09-05T13:44:22.524Z,23.30
2018-09-05T13:46:53.156Z,23.10
2018-09-05T13:49:24.000Z,22.90
2018-09-05T13:52:00.346Z,22.70
2018-09-05T13:54:31.764Z,22.60
2018-09-05T13:57:02.558Z,22.70
2018-09-05T13:59:33.644Z,22.70
2018-09-05T14:02:04.645Z,22.70
2018-09-05T14:04:35.174Z,22.60
2018-09-05T14:07:06.200Z,22.90
2018-09-05T14:09:36.894Z,23.20
2018-09-05T14:12:07.945Z,23.30
2018-09-05T14:14:38.815Z,23.40
2018-09-05T14:17:09.434Z,23.40
2018-09-05T14:19:39.974Z,23.30
2018-09-05T14:22:10.532Z,23.20
2018-09-05T14:24:41.165Z,23.10
2018-09-05T14:27:11.949Z,23.10
2018-09-05T14:29:42.583Z,23.20
2018-09-05T14:32:13.285Z,23.10
2018-09-05T14:34:44.127Z,23.00
2018-09-05T14:37:15.012Z,22.90
2018-09-05T14:39:45.691Z,23.00
2018-09-05T14:42:16.695Z,23.20
2018-09-05T14:44:47.721Z,23.40
2018-09-05T14:47:18.644Z,23.70
2018-09-05T14:49:49.297Z,23.80
2018-09-05T14:52:19.834Z,23.90
2018-09-05T14:54:50.532Z,24.00
2018-09-05T14:57:21.349Z,24.00
2018-09-05T14:59:52.242Z,24.20
2018-09-05T15:02:23.112Z,24.20
2018-09-05T15:04:53.964Z,24.20
2018-09-05T15:07:25.472Z,24.30
2018-09-05T15:09:56.836Z,24.30
2018-09-05T15:12:27.881Z,24.10
2018-09-05T15:14:59.437Z,24.20
2018-09-05T15:17:30.486Z,24.30
2018-09-05T15:20:02.008Z,24.30
2018-09-05T15:22:32.896Z,24.20
2018-09-05T15:25:03.579Z,24.10
2018-09-05T15:27:34.205Z,23.90
2018-09-05T15:30:04.914Z,23.60
2018-09-05T15:32:35.738Z,23.40
2018-09-05T15:35:06.619Z,23.20
2018-09-05T15:37:37.265Z,22.90
2018-09-05T15:40:08.079Z,22.80
2018-09-05T15:42:38.949Z,22.90
2018-09-05T15:45:09.600Z,22.90
2018-09-05T15:47:40.178Z,22.90
2018-09-05T15:50:10.819Z,22.90
2018-09-05T15:52:41.519Z,23.00
2018-09-05T15:55:13.924Z,23.10
2018-09-05T15:57:45.184Z,23.20
2018-09-05T16:00:15.909Z,23.30
2018-09-05T16:02:46.534Z,23.30
2018-09-05T16:05:17.071Z,23.30
2018-09-05T16:07:47.763Z,23.30
2018-09-05T16:10:18.448Z,23.20
2018-09-05T16:12:49.577Z,23.20
2018-09-05T16:15:21.188Z,23.10
2018-09-05T16:17:52.352Z,23.10
2018-09-05T16:20:22.920Z,23.00
2018-09-05T16:22:53.524Z,22.90
2018-09-05T16:25:24.195Z,22.80
2018-09-05T16:27:54.741Z,22.70
2018-09-05T16:30:25.255Z,22.60
2018-09-05T16:32:55.962Z,22.50
2018-09-05T16:35:26.982Z,22.40
2018-09-05T16:37:57.826Z,22.30
2018-09-05T16:40:28.490Z,22.20
2018-09-05T16:42:59.480Z,22.10
2018-09-05T16:45:30.385Z,22.00
2018-09-05T16:48:01.040Z,21.90
2018-09-05T16:50:31.668Z,21.80
2018-09-05T16:53:02.204Z,21.70
2018-09-05T16:55:33.098Z,21.60
2018-09-05T16:58:03.774Z,21.60
2018-09-05T17:00:34.791Z,21.50
2018-09-05T17:03:06.148Z,21.40
2018-09-05T17:05:36.724Z,21.30
2018-09-05T17:08:07.563Z,21.30
2018-09-05T17:10:38.193Z,21.20
2018-09-05T17:13:09.246Z,21.20
2018-09-05T17:15:40.044Z,21.10
2018-09-05T17:18:10.712Z,21.10
2018-09-05T17:20:41.757Z,21.00
2018-09-05T17:23:12.727Z,21.00
2018-09-05T17:25:43.772Z,20.90
2018-09-05T17:28:15.104Z,20.80
2018-09-05T17:30:45.964Z,20.70
2018-09-05T17:33:17.154Z,20.50
2018-09-05T17:35:47.772Z,20.40
2018-09-05T17:38:18.487Z,20.30
2018-09-05T17:40:49.155Z,20.10
2018-09-05T17:43:19.819Z,20.00
2018-09-05T17:45:50.872Z,19.80
2018-09-05T17:48:21.854Z,19.70
2018-09-05T17:50:52.527Z,19.50
2018-09-05T17:53:23.458Z,19.50
2018-09-05T17:55:54.513Z,19.30
2018-09-05T17:58:25.385Z,19.20
2018-09-05T18:00:56.652Z,19.00
2018-09-05T18:03:27.404Z,18.90
2018-09-05T18:05:58.227Z,18.80
2018-09-05T18:08:29.113Z,18.60
2018-09-05T18:11:00.503Z,18.50
2018-09-05T18:13:31.465Z,18.40
2018-09-05T18:16:02.202Z,18.30
2018-09-05T18:18:33.254Z,18.10
2018-09-05T18:21:04.040Z,18.00
2018-09-05T18:23:34.772Z,17.90
2018-09-05T18:26:06.426Z,17.80
2018-09-05T18:28:37.125Z,17.80
2018-09-05T18:31:08.266Z,17.70
2018-09-05T18:33:39.361Z,17.70
2018-09-05T18:36:10.388Z,17.60
2018-09-05T18:38:41.132Z,17.60
2018-09-05T18:41:11.823Z,17.60
2018-09-05T18:43:42.875Z,17.50
2018-09-05T18:46:13.708Z,17.50
2018-09-05T18:48:44.722Z,17.50
2018-09-05T18:51:15.688Z,17.50
2018-09-05T18:53:46.542Z,17.40
2018-09-05T18:56:17.431Z,17.50
2018-09-05T18:58:48.239Z,17.40
2018-09-05T19:01:19.401Z,17.40
2018-09-05T19:03:50.345Z,17.40
2018-09-05T19:06:21.512Z,17.40
2018-09-05T19:08:52.292Z,17.40
2018-09-05T19:11:23.091Z,17.40
2018-09-05T19:13:54.154Z,17.40
2018-09-05T19:16:24.903Z,17.30
2018-09-05T19:18:55.917Z,17.40
2018-09-05T19:21:27.253Z,17.30
2018-09-05T19:23:58.482Z,17.30
2018-09-05T19:26:29.302Z,17.30
2018-09-05T19:29:00.170Z,17.20
2018-09-05T19:31:31.196Z,17.20
2018-09-05T19:34:01.974Z,17.00
2018-09-05T19:36:35.183Z,17.00
2018-09-05T19:39:09.988Z,16.90
2018-09-05T19:41:40.767Z,16.80
2018-09-05T19:44:12.256Z,16.80
2018-09-05T19:46:43.167Z,16.70
2018-09-05T19:49:13.998Z,16.70
2018-09-05T19:51:45.233Z,16.60
2018-09-05T19:54:16.114Z,16.70
2018-09-05T19:56:47.268Z,16.60
2018-09-05T19:59:18.325Z,16.60
2018-09-05T20:01:49.268Z,16.60
2018-09-05T20:04:20.201Z,16.50
2018-09-05T20:06:51.123Z,16.50
2018-09-05T20:09:22.479Z,16.50
2018-09-05T20:11:53.231Z,16.40
2018-09-05T20:14:24.147Z,16.40
2018-09-05T20:16:55.255Z,16.40
2018-09-05T20:19:26.302Z,16.30
2018-09-05T20:21:57.519Z,16.40
2018-09-05T20:24:28.287Z,16.40
2018-09-05T20:26:59.860Z,16.30
2018-09-05T20:29:30.672Z,16.30
2018-09-05T20:32:01.569Z,16.20
2018-09-05T20:34:32.503Z,16.20
2018-09-05T20:37:03.633Z,16.20
2018-09-05T20:39:34.566Z,16.20
2018-09-05T20:42:05.975Z,16.20
2018-09-05T20:44:36.822Z,16.30
2018-09-05T20:47:07.978Z,16.40
2018-09-05T20:49:38.708Z,16.50
2018-09-05T20:52:10.653Z,16.60
2018-09-05T20:54:42.320Z,16.60
2018-09-05T20:57:14.431Z,16.60
2018-09-05T20:59:45.843Z,16.90
2018-09-05T21:02:17.061Z,17.30
2018-09-05T21:04:48.347Z,17.30
2018-09-05T21:07:19.435Z,17.30
2018-09-05T21:09:50.373Z,17.30
2018-09-05T21:12:21.275Z,17.40
2018-09-05T21:14:52.473Z,17.50
2018-09-05T21:17:23.641Z,17.60
2018-09-05T21:19:54.969Z,17.60
2018-09-05T21:22:25.665Z,17.70
2018-09-05T21:24:56.755Z,17.70
2018-09-05T21:27:27.753Z,17.80
2018-09-05T21:29:58.610Z,17.70
2018-09-05T21:32:29.963Z,17.80
2018-09-05T21:35:00.853Z,17.70
2018-09-05T21:37:31.569Z,17.70
2018-09-05T21:40:02.194Z,17.70
2018-09-05T21:42:32.978Z,17.70
2018-09-05T21:45:03.889Z,17.70
2018-09-05T21:47:34.638Z,17.60
2018-09-05T21:50:05.840Z,17.60
2018-09-05T21:52:36.623Z,17.60
2018-09-05T21:55:07.783Z,17.50
2018-09-05T21:57:38.592Z,17.50
2018-09-05T22:00:10.558Z,17.50
2018-09-05T22:02:41.494Z,17.50
2018-09-05T22:05:12.330Z,17.40
2018-09-05T22:07:43.233Z,17.40
2018-09-05T22:10:14.601Z,17.30
2018-09-05T22:12:45.253Z,17.30
2018-09-05T22:15:16.168Z,17.20
2018-09-05T22:17:47.385Z,17.20
2018-09-05T22:20:18.945Z,17.10
2018-09-05T22:22:49.867Z,17.00
2018-09-05T22:25:20.601Z,16.80
2018-09-05T22:27:51.348Z,16.70
2018-09-05T22:30:22.735Z,16.60
2018-09-05T22:32:53.399Z,16.40
2018-09-05T22:35:24.031Z,16.20
2018-09-05T22:37:54.785Z,16.20
2018-09-05T22:40:25.874Z,16.20
2018-09-05T22:43:13.345Z,16.30
2018-09-05T22:46:01.004Z,16.40
2018-09-05T22:51:32.550Z,16.50
2018-09-05T22:56:34.045Z,16.60
2018-09-05T23:01:23.961Z,16.70
2018-09-05T23:04:41.785Z,16.70
2018-09-05T23:08:35.079Z,16.80
2018-09-05T23:13:25.329Z,16.80
2018-09-05T23:16:12.784Z,16.80
2018-09-05T23:19:07.191Z,16.80
2018-09-05T23:21:37.904Z,16.80
2018-09-05T23:24:10.843Z,16.70
2018-09-05T23:26:42.396Z,16.60
2018-09-05T23:29:13.139Z,16.60
2018-09-05T23:34:20.867Z,16.70
2018-09-05T23:37:06.186Z,16.70
2018-09-05T23:39:48.897Z,16.70
2018-09-05T23:42:19.956Z,16.60
2018-09-05T23:44:51.097Z,16.50
2018-09-05T23:47:21.770Z,16.40
2018-09-05T23:49:52.505Z,16.30
2018-09-05T23:52:23.198Z,16.30
2018-09-05T23:54:54.164Z,16.20
2018-09-05T23:57:24.843Z,16.10
2018-09-05T23:59:55.557Z,16.10
